Time;durP1;ratioP1;P1;durP2;ratioP2;P2;SDS_P1;SDS_P2;PMS_P1;PMS_P2;Temp;Humidity;BMP_temperature;BMP_pressure;BME280_temperature;BME280_humidity;BME280_pressure;Samples;Min_cycle;Max_cycle;Signal;HPM_P1;HPM_P2
2022/01/04 00:02:17;;;;;;;2.83;1.60;;;;;;;;;;5015499;28;20049;-59
2022/01/04 00:04:44;;;;;;;3.00;1.08;;;;;;;;;;5015689;28;20054;-59
2022/01/04 00:07:11;;;;;;;2.85;1.25;;;;;;;;;;5015086;28;20049;-59
2022/01/04 00:09:42;;;;;;;3.15;1.10;;;;;;;;;;5015575;28;20466;-59
2022/01/04 00:14:56;;;;;;;2.47;0.88;;;;;;;;;;5015502;28;20113;-57
2022/01/04 00:17:23;;;;;;;2.78;1.10;;;;;;;;;;5014936;28;20053;-58
2022/01/04 00:19:50;;;;;;;3.40;1.25;;;;;;;;;;5015253;28;20077;-58
2022/01/04 00:22:17;;;;;;;2.63;1.10;;;;;;;;;;5015035;28;20057;-59
2022/01/04 00:24:44;;;;;;;2.28;0.80;;;;;;;;;;5015029;28;20050;-58
2022/01/04 00:27:11;;;;;;;2.58;1.00;;;;;;;;;;5014857;28;20050;-59
2022/01/04 00:29:38;;;;;;;3.63;1.05;;;;;;;;;;5015012;28;20388;-59
2022/01/04 00:32:07;;;;;;;2.20;1.10;;;;;;;;;;5015473;28;20057;-58
2022/01/04 00:34:34;;;;;;;3.88;1.10;;;;;;;;;;5014931;28;20050;-57
2022/01/04 00:37:00;;;;;;;1.73;0.85;;;;;;;;;;5014729;28;20049;-58
2022/01/04 00:39:27;;;;;;;2.85;0.90;;;;;;;;;;5014873;28;20050;-59
2022/01/04 00:41:54;;;;;;;2.35;0.80;;;;;;;;;;5014703;28;20049;-59
2022/01/04 00:44:21;;;;;;;2.72;0.80;;;;;;;;;;5014651;28;20046;-57
2022/01/04 00:46:48;;;;;;;1.80;0.70;;;;;;;;;;5014809;28;20096;-58
2022/01/04 00:49:17;;;;;;;1.70;1.00;;;;;;;;;;5014477;28;20050;-57
2022/01/04 00:51:47;;;;;;;1.33;0.80;;;;;;;;;;5014771;28;20511;-59
2022/01/04 00:54:14;;;;;;;3.10;0.80;;;;;;;;;;5014665;28;20173;-58
2022/01/04 00:56:43;;;;;;;1.58;0.55;;;;;;;;;;5014535;28;20054;-58
2022/01/04 00:59:10;;;;;;;2.78;1.15;;;;;;;;;;5014175;28;20054;-58
2022/01/04 01:01:38;;;;;;;2.67;0.73;;;;;;;;;;5014391;28;20050;-59
2022/01/04 01:04:06;;;;;;;1.38;0.60;;;;;;;;;;5014194;28;20093;-57
2022/01/04 01:06:34;;;;;;;1.63;0.70;;;;;;;;;;5014131;28;20045;-57
2022/01/04 01:09:02;;;;;;;3.78;0.90;;;;;;;;;;5014293;28;20104;-54
2022/01/04 01:11:28;;;;;;;1.90;0.80;;;;;;;;;;5014374;28;20061;-54
2022/01/04 01:13:55;;;;;;;1.70;0.77;;;;;;;;;;5014039;28;20061;-59
2022/01/04 01:16:22;;;;;;;2.10;0.80;;;;;;;;;;5014156;28;20050;-57
2022/01/04 01:18:49;;;;;;;1.88;0.90;;;;;;;;;;5013985;28;20495;-57
2022/01/04 01:21:16;;;;;;;2.65;1.58;;;;;;;;;;5013961;28;20458;-58
2022/01/04 01:23:45;;;;;;;2.28;0.70;;;;;;;;;;5013835;28;20046;-59
2022/01/04 01:26:12;;;;;;;1.73;0.85;;;;;;;;;;5013770;28;20499;-58
2022/01/04 01:28:39;;;;;;;1.33;0.80;;;;;;;;;;5013848;28;20049;-58
2022/01/04 01:31:06;;;;;;;2.28;1.00;;;;;;;;;;5013957;28;20058;-59
2022/01/04 01:33:33;;;;;;;3.22;1.17;;;;;;;;;;5013631;28;20057;-59
2022/01/04 01:36:00;;;;;;;3.42;0.95;;;;;;;;;;5013931;28;20049;-59
2022/01/04 01:38:27;;;;;;;2.42;1.10;;;;;;;;;;5013466;28;20116;-59
2022/01/04 01:40:55;;;;;;;3.60;1.17;;;;;;;;;;5013559;28;20392;-57
2022/01/04 01:43:24;;;;;;;3.15;1.27;;;;;;;;;;5013587;28;20041;-57
2022/01/04 01:45:53;;;;;;;2.15;0.80;;;;;;;;;;5013984;28;20487;-58
2022/01/04 01:48:20;;;;;;;2.35;0.90;;;;;;;;;;5013504;28;20053;-59
2022/01/04 01:50:46;;;;;;;2.03;0.90;;;;;;;;;;5013634;28;20045;-59
2022/01/04 01:53:14;;;;;;;1.55;0.75;;;;;;;;;;5013548;28;20054;-56
2022/01/04 01:55:40;;;;;;;2.22;0.80;;;;;;;;;;5013456;28;20053;-59
2022/01/04 01:58:09;;;;;;;2.15;0.70;;;;;;;;;;5013136;28;20054;-58
2022/01/04 02:00:36;;;;;;;1.48;0.70;;;;;;;;;;5013327;28;20042;-58
2022/01/04 02:03:03;;;;;;;3.28;0.90;;;;;;;;;;5013606;28;20100;-59
2022/01/04 02:05:30;;;;;;;2.17;0.70;;;;;;;;;;5013542;28;20511;-57
2022/01/04 02:07:59;;;;;;;1.50;0.70;;;;;;;;;;5012924;28;20514;-53
2022/01/04 02:10:25;;;;;;;1.98;0.82;;;;;;;;;;5013169;28;20058;-54
2022/01/04 02:12:54;;;;;;;2.28;0.85;;;;;;;;;;5013217;28;20053;-55
2022/01/04 02:15:24;;;;;;;2.45;0.82;;;;;;;;;;5013209;28;20124;-54
2022/01/04 02:17:51;;;;;;;3.80;1.13;;;;;;;;;;5012385;28;20061;-53
2022/01/04 02:20:20;;;;;;;1.95;1.00;;;;;;;;;;5012774;28;20061;-54
2022/01/04 02:22:48;;;;;;;3.13;0.90;;;;;;;;;;5012907;28;20054;-54
2022/01/04 02:25:15;;;;;;;2.53;0.73;;;;;;;;;;5012808;28;20144;-55
2022/01/04 02:27:43;;;;;;;2.67;0.70;;;;;;;;;;5012716;28;20057;-53
2022/01/04 02:30:14;;;;;;;2.03;0.70;;;;;;;;;;5012839;28;20415;-54
2022/01/04 02:32:41;;;;;;;1.80;0.70;;;;;;;;;;5012792;28;20053;-56
2022/01/04 02:35:09;;;;;;;2.05;0.70;;;;;;;;;;5012667;28;20049;-53
2022/01/04 02:37:37;;;;;;;2.47;0.80;;;;;;;;;;5012558;28;20073;-53
2022/01/04 02:40:06;;;;;;;2.25;0.85;;;;;;;;;;5012568;28;20050;-53
2022/01/04 02:42:32;;;;;;;3.55;1.23;;;;;;;;;;5012591;28;20042;-55
2022/01/04 02:45:00;;;;;;;1.92;0.70;;;;;;;;;;5012570;28;20050;-55
2022/01/04 02:47:28;;;;;;;1.65;0.80;;;;;;;;;;5012300;28;20058;-54
2022/01/04 02:49:55;;;;;;;2.25;0.73;;;;;;;;;;5012548;28;20050;-54
2022/01/04 02:52:22;;;;;;;1.88;0.77;;;;;;;;;;5012691;28;20064;-54
2022/01/04 02:54:51;;;;;;;3.60;0.93;;;;;;;;;;5012507;28;20054;-54
2022/01/04 02:57:18;;;;;;;2.10;0.70;;;;;;;;;;5012182;28;20057;-56
2022/01/04 02:59:45;;;;;;;1.98;0.80;;;;;;;;;;5012419;28;20049;-53
2022/01/04 03:02:12;;;;;;;2.70;0.68;;;;;;;;;;5012211;28;20042;-53
2022/01/04 03:04:38;;;;;;;2.95;0.80;;;;;;;;;;5012636;28;20454;-56
2022/01/04 03:07:05;;;;;;;3.25;0.80;;;;;;;;;;5012108;28;20499;-53
2022/01/04 03:09:32;;;;;;;2.03;0.77;;;;;;;;;;5012244;28;20046;-54
2022/01/04 03:12:01;;;;;;;0.85;0.60;;;;;;;;;;5012485;28;20057;-56
2022/01/04 03:14:28;;;;;;;1.98;0.93;;;;;;;;;;5012352;28;20065;-52
2022/01/04 03:16:54;;;;;;;2.38;0.70;;;;;;;;;;5011988;28;20046;-55
2022/01/04 03:19:21;;;;;;;2.45;0.90;;;;;;;;;;5012576;28;20495;-57
2022/01/04 03:21:48;;;;;;;1.85;0.60;;;;;;;;;;5012085;28;20050;-55
2022/01/04 03:24:16;;;;;;;2.13;0.85;;;;;;;;;;5012339;28;20050;-52
2022/01/04 03:26:43;;;;;;;2.15;0.70;;;;;;;;;;5011876;28;20434;-54
2022/01/04 03:29:13;;;;;;;2.85;0.80;;;;;;;;;;5013185;28;20054;-52
2022/01/04 03:31:41;;;;;;;2.10;0.60;;;;;;;;;;5016072;28;20510;-51
2022/01/04 03:34:08;;;;;;;1.83;0.73;;;;;;;;;;5016101;28;20057;-55
2022/01/04 03:36:36;;;;;;;0.95;0.50;;;;;;;;;;5015768;28;20054;-55
2022/01/04 03:39:06;;;;;;;1.15;0.60;;;;;;;;;;5016217;28;20076;-52
2022/01/04 03:41:36;;;;;;;3.63;0.80;;;;;;;;;;5016116;28;20458;-53
2022/01/04 03:44:03;;;;;;;1.42;0.60;;;;;;;;;;5016367;28;20061;-54
2022/01/04 03:46:32;;;;;;;1.60;0.90;;;;;;;;;;5015924;28;20050;-55
2022/01/04 03:48:59;;;;;;;1.17;0.60;;;;;;;;;;5015809;28;20049;-55
2022/01/04 03:51:25;;;;;;;2.05;0.70;;;;;;;;;;5015700;28;20057;-52
2022/01/04 03:53:52;;;;;;;1.73;1.00;;;;;;;;;;5015680;28;20057;-54
2022/01/04 03:56:19;;;;;;;1.85;1.08;;;;;;;;;;5015573;28;20050;-53
2022/01/04 03:58:46;;;;;;;1.05;0.60;;;;;;;;;;5015573;28;20467;-52
2022/01/04 04:01:13;;;;;;;2.00;0.65;;;;;;;;;;5015953;28;20411;-56
2022/01/04 04:03:41;;;;;;;1.52;0.80;;;;;;;;;;5015494;28;20050;-56
2022/01/04 04:06:08;;;;;;;0.88;0.70;;;;;;;;;;5015541;28;20099;-53
2022/01/04 04:08:35;;;;;;;1.65;0.80;;;;;;;;;;5015757;28;20054;-54
2022/01/04 04:11:02;;;;;;;1.48;0.60;;;;;;;;;;5016058;28;20459;-53
2022/01/04 04:13:29;;;;;;;2.25;0.80;;;;;;;;;;5015567;28;20127;-54
2022/01/04 04:15:56;;;;;;;2.22;0.85;;;;;;;;;;5015505;28;20053;-53
2022/01/04 04:18:23;;;;;;;1.42;0.70;;;;;;;;;;5015674;28;20503;-56
2022/01/04 04:20:51;;;;;;;2.40;1.45;;;;;;;;;;5015792;28;20450;-54
2022/01/04 04:23:18;;;;;;;1.67;0.68;;;;;;;;;;5015192;28;20082;-51
2022/01/04 04:25:45;;;;;;;2.78;0.80;;;;;;;;;;5015425;28;20054;-53
2022/01/04 04:28:11;;;;;;;1.85;0.80;;;;;;;;;;5014999;28;20049;-53
2022/01/04 04:30:38;;;;;;;2.97;0.98;;;;;;;;;;5015411;28;20526;-53
2022/01/04 04:33:05;;;;;;;2.13;0.98;;;;;;;;;;5015133;28;20057;-54
2022/01/04 04:35:33;;;;;;;2.30;0.90;;;;;;;;;;5015369;28;20056;-52
2022/01/04 04:38:02;;;;;;;2.25;0.70;;;;;;;;;;5014734;28;20050;-51
2022/01/04 04:40:29;;;;;;;2.72;1.00;;;;;;;;;;5014862;28;20053;-53
2022/01/04 04:42:57;;;;;;;1.90;0.80;;;;;;;;;;5014970;28;20050;-55
2022/01/04 04:45:24;;;;;;;1.95;0.90;;;;;;;;;;5015219;28;20053;-53
2022/01/04 04:47:50;;;;;;;2.67;0.95;;;;;;;;;;5014697;28;20407;-54
2022/01/04 04:50:17;;;;;;;4.03;1.30;;;;;;;;;;5014827;28;20108;-53
2022/01/04 04:52:45;;;;;;;2.78;1.10;;;;;;;;;;5014594;28;20057;-56
2022/01/04 04:55:13;;;;;;;3.50;1.20;;;;;;;;;;5014759;28;20462;-55
2022/01/04 04:57:40;;;;;;;2.38;0.90;;;;;;;;;;5014891;28;20446;-54
2022/01/04 05:00:09;;;;;;;3.67;1.40;;;;;;;;;;5014647;28;20495;-52
2022/01/04 05:02:36;;;;;;;3.05;1.40;;;;;;;;;;5014585;28;20073;-53
2022/01/04 05:05:03;;;;;;;3.55;1.20;;;;;;;;;;5014361;28;20056;-56
2022/01/04 05:07:30;;;;;;;4.90;1.58;;;;;;;;;;5014239;28;20050;-53
2022/01/04 05:09:57;;;;;;;4.70;1.42;;;;;;;;;;5014365;28;20061;-56
2022/01/04 05:12:25;;;;;;;3.25;1.00;;;;;;;;;;5014483;28;20054;-55
2022/01/04 05:14:52;;;;;;;4.45;1.45;;;;;;;;;;5014282;28;20414;-53
2022/01/04 05:17:19;;;;;;;5.63;1.70;;;;;;;;;;5014064;28;20076;-53
2022/01/04 05:19:46;;;;;;;4.50;1.33;;;;;;;;;;5014104;28;20050;-53
2022/01/04 05:22:13;;;;;;;4.40;1.60;;;;;;;;;;5014048;28;20054;-52
2022/01/04 05:24:40;;;;;;;4.43;1.30;;;;;;;;;;5014276;28;20050;-55
2022/01/04 05:27:07;;;;;;;2.63;1.20;;;;;;;;;;5014078;28;20045;-55
2022/01/04 05:29:35;;;;;;;2.65;1.30;;;;;;;;;;5013994;28;20049;-54
2022/01/04 05:32:02;;;;;;;2.63;1.10;;;;;;;;;;5014009;28;20050;-56
2022/01/04 05:34:29;;;;;;;3.55;1.08;;;;;;;;;;5013812;28;20050;-52
2022/01/04 05:36:56;;;;;;;3.22;1.50;;;;;;;;;;5013867;28;20408;-54
2022/01/04 05:39:22;;;;;;;3.30;1.30;;;;;;;;;;5013848;28;20050;-55
2022/01/04 05:41:49;;;;;;;3.53;1.20;;;;;;;;;;5013858;28;20057;-52
2022/01/04 05:44:16;;;;;;;4.60;1.40;;;;;;;;;;5013919;28;20049;-55
2022/01/04 05:46:44;;;;;;;4.55;1.58;;;;;;;;;;5014022;28;20411;-55
2022/01/04 05:49:11;;;;;;;3.88;1.98;;;;;;;;;;5013536;28;20058;-53
2022/01/04 05:51:38;;;;;;;5.18;1.55;;;;;;;;;;5012886;28;20054;-53
2022/01/04 05:54:05;;;;;;;3.08;1.33;;;;;;;;;;5013851;28;20057;-56
2022/01/04 05:56:32;;;;;;;4.65;1.42;;;;;;;;;;5013568;28;20049;-53
2022/01/04 05:58:59;;;;;;;4.70;1.60;;;;;;;;;;5013581;28;20062;-55
2022/01/04 06:01:26;;;;;;;5.05;1.88;;;;;;;;;;5013400;28;20045;-52
2022/01/04 06:03:54;;;;;;;2.83;1.50;;;;;;;;;;5013610;28;20057;-53
2022/01/04 06:06:21;;;;;;;4.55;1.70;;;;;;;;;;5013701;28;20503;-53
2022/01/04 06:08:49;;;;;;;2.95;1.48;;;;;;;;;;5013288;28;20446;-53
2022/01/04 06:11:31;;;;;;;4.07;1.65;;;;;;;;;;5014052;28;20096;-56
2022/01/04 06:16:42;;;;;;;2.75;1.25;;;;;;;;;;5013440;28;20175;-55
2022/01/04 06:19:10;;;;;;;2.92;1.60;;;;;;;;;;5013245;28;20096;-57
2022/01/04 06:21:37;;;;;;;3.83;1.40;;;;;;;;;;5013174;28;20384;-57
2022/01/04 06:24:05;;;;;;;4.03;1.52;;;;;;;;;;5012770;28;20058;-53
2022/01/04 06:26:32;;;;;;;4.85;1.60;;;;;;;;;;5012944;28;20053;-55
2022/01/04 06:28:59;;;;;;;2.97;1.50;;;;;;;;;;5012843;28;20180;-56
2022/01/04 06:31:26;;;;;;;4.47;1.45;;;;;;;;;;5012854;28;20420;-53
2022/01/04 06:33:53;;;;;;;2.67;1.20;;;;;;;;;;5013047;28;20049;-55
2022/01/04 06:36:21;;;;;;;3.90;1.63;;;;;;;;;;5012841;28;20045;-54
2022/01/04 06:38:48;;;;;;;4.80;1.40;;;;;;;;;;5012773;28;20508;-57
2022/01/04 06:41:15;;;;;;;3.03;1.50;;;;;;;;;;5012731;28;20057;-53
2022/01/04 06:43:42;;;;;;;5.43;1.60;;;;;;;;;;5012732;28;20057;-55
2022/01/04 06:46:11;;;;;;;2.92;1.30;;;;;;;;;;5012653;28;20057;-52
2022/01/04 06:48:38;;;;;;;3.00;1.30;;;;;;;;;;5012655;28;20140;-52
2022/01/04 06:51:05;;;;;;;4.05;1.40;;;;;;;;;;5012686;28;20092;-53
2022/01/04 06:53:34;;;;;;;3.22;1.30;;;;;;;;;;5012585;28;20061;-56
2022/01/04 06:56:01;;;;;;;4.50;1.55;;;;;;;;;;5012463;28;20053;-54
2022/01/04 06:58:28;;;;;;;4.10;2.80;;;;;;;;;;5012284;28;20050;-55
2022/01/04 07:00:56;;;;;;;4.82;1.38;;;;;;;;;;5012378;28;20057;-54
2022/01/04 07:03:22;;;;;;;3.85;1.80;;;;;;;;;;5012158;28;20046;-52
2022/01/04 07:05:49;;;;;;;4.28;1.70;;;;;;;;;;5012353;28;20061;-53
2022/01/04 07:08:16;;;;;;;4.10;1.83;;;;;;;;;;5012197;28;20054;-53
2022/01/04 07:10:44;;;;;;;4.25;1.75;;;;;;;;;;5012414;28;20061;-55
2022/01/04 07:13:11;;;;;;;3.97;1.55;;;;;;;;;;5012622;28;20411;-52
2022/01/04 07:15:38;;;;;;;5.82;2.80;;;;;;;;;;5012426;28;20057;-55
2022/01/04 07:18:06;;;;;;;3.75;1.77;;;;;;;;;;5012303;28;20054;-55
2022/01/04 07:20:33;;;;;;;4.50;1.90;;;;;;;;;;5012672;28;20058;-54
2022/01/04 07:23:00;;;;;;;4.38;1.70;;;;;;;;;;5012371;28;20176;-54
2022/01/04 07:25:27;;;;;;;3.63;1.80;;;;;;;;;;5012670;28;20442;-51
2022/01/04 07:27:56;;;;;;;6.13;1.95;;;;;;;;;;5012614;28;20507;-52
2022/01/04 07:30:23;;;;;;;3.67;1.70;;;;;;;;;;5012314;28;20060;-53
2022/01/04 07:32:49;;;;;;;3.50;1.80;;;;;;;;;;5012206;28;20058;-52
2022/01/04 07:35:16;;;;;;;3.42;1.38;;;;;;;;;;5012629;28;20496;-54
2022/01/04 07:37:43;;;;;;;3.92;1.52;;;;;;;;;;5012208;28;20108;-52
2022/01/04 07:40:11;;;;;;;2.80;1.48;;;;;;;;;;5012296;28;20116;-52
2022/01/04 07:42:38;;;;;;;4.00;1.40;;;;;;;;;;5012130;28;20053;-52
2022/01/04 07:45:08;;;;;;;4.22;1.40;;;;;;;;;;5012125;28;20054;-53
2022/01/04 07:47:34;;;;;;;3.45;1.60;;;;;;;;;;5012067;28;20054;-54
2022/01/04 07:50:01;;;;;;;4.63;1.60;;;;;;;;;;5012490;28;20077;-54
2022/01/04 07:52:28;;;;;;;2.88;1.30;;;;;;;;;;5012196;28;20073;-53
2022/01/04 07:54:55;;;;;;;4.05;1.75;;;;;;;;;;5012011;28;20046;-56
2022/01/04 07:57:22;;;;;;;4.47;1.58;;;;;;;;;;5011942;28;20491;-53
2022/01/04 07:59:49;;;;;;;3.35;1.77;;;;;;;;;;5012245;28;20058;-52
2022/01/04 08:02:17;;;;;;;5.20;1.90;;;;;;;;;;5011968;28;20045;-57
2022/01/04 08:04:44;;;;;;;5.88;2.78;;;;;;;;;;5012256;28;20061;-56
2022/01/04 08:07:11;;;;;;;4.63;1.77;;;;;;;;;;5012044;28;20445;-53
2022/01/04 08:09:38;;;;;;;4.00;1.80;;;;;;;;;;5006972;28;20053;-53
2022/01/04 08:12:05;;;;;;;2.55;1.45;;;;;;;;;;5009932;28;20116;-54
2022/01/04 08:14:32;;;;;;;4.05;1.55;;;;;;;;;;5010123;28;20050;-57
2022/01/04 08:16:59;;;;;;;4.63;1.40;;;;;;;;;;5013221;28;20488;-56
2022/01/04 08:19:27;;;;;;;3.67;1.40;;;;;;;;;;5013973;28;20064;-54
2022/01/04 08:21:54;;;;;;;6.50;1.45;;;;;;;;;;5013602;28;20050;-56
2022/01/04 08:24:21;;;;;;;3.00;0.88;;;;;;;;;;5013268;28;20073;-57
2022/01/04 08:26:48;;;;;;;3.63;1.00;;;;;;;;;;5013206;28;20053;-57
2022/01/04 08:29:15;;;;;;;3.13;0.85;;;;;;;;;;5011895;28;20065;-52
2022/01/04 08:31:42;;;;;;;2.35;0.80;;;;;;;;;;5013456;28;20503;-54
2022/01/04 08:34:09;;;;;;;2.40;0.65;;;;;;;;;;5013253;28;20053;-53
2022/01/04 08:36:38;;;;;;;3.80;0.80;;;;;;;;;;5013165;28;20052;-54
2022/01/04 08:39:06;;;;;;;2.85;0.85;;;;;;;;;;5023598;28;20487;-55
2022/01/04 08:41:33;;;;;;;3.10;1.00;;;;;;;;;;5032879;28;20052;-55
2022/01/04 08:44:00;;;;;;;1.23;0.60;;;;;;;;;;5032585;28;20079;-53
2022/01/04 08:46:27;;;;;;;2.08;0.60;;;;;;;;;;5033061;28;20480;-58
2022/01/04 08:48:54;;;;;;;1.27;0.60;;;;;;;;;;5033151;28;20049;-54
2022/01/04 08:51:21;;;;;;;1.60;0.82;;;;;;;;;;5032878;28;20049;-55
2022/01/04 08:53:49;;;;;;;2.15;0.70;;;;;;;;;;5033089;28;20053;-55
2022/01/04 08:56:19;;;;;;;1.23;0.73;;;;;;;;;;5032554;28;20112;-55
2022/01/04 08:58:46;;;;;;;1.63;0.70;;;;;;;;;;5032564;28;20088;-52
2022/01/04 09:01:13;;;;;;;2.13;0.90;;;;;;;;;;5032965;28;20287;-57
2022/01/04 09:03:39;;;;;;;3.97;1.00;;;;;;;;;;5032321;28;20144;-58
2022/01/04 09:06:08;;;;;;;3.47;0.88;;;;;;;;;;5032773;28;20045;-56
2022/01/04 09:08:36;;;;;;;1.90;0.82;;;;;;;;;;5032131;28;20093;-57
2022/01/04 09:11:04;;;;;;;6.10;2.70;;;;;;;;;;5032383;28;20100;-54
2022/01/04 09:13:35;;;;;;;3.88;1.42;;;;;;;;;;5032542;28;20057;-57
2022/01/04 09:18:49;;;;;;;3.70;2.08;;;;;;;;;;5032161;28;20060;-54
2022/01/04 09:21:18;;;;;;;5.45;2.38;;;;;;;;;;5032365;28;20057;-54
2022/01/04 09:23:48;;;;;;;3.45;1.27;;;;;;;;;;5032340;28;20052;-55
2022/01/04 09:26:18;;;;;;;3.53;1.30;;;;;;;;;;5031100;28;20392;-55
2022/01/04 09:28:45;;;;;;;2.53;1.33;;;;;;;;;;5032050;28;20415;-60
2022/01/04 09:31:13;;;;;;;2.65;1.10;;;;;;;;;;5032155;28;20057;-57
2022/01/04 09:33:41;;;;;;;4.38;1.50;;;;;;;;;;5032297;28;20060;-62
2022/01/04 09:36:07;;;;;;;3.72;1.35;;;;;;;;;;5032126;28;20049;-65
2022/01/04 09:38:34;;;;;;;3.60;1.40;;;;;;;;;;5031946;28;20072;-64
2022/01/04 09:41:01;;;;;;;2.80;1.30;;;;;;;;;;5032417;28;20064;-59
2022/01/04 09:43:31;;;;;;;2.67;1.23;;;;;;;;;;5031807;28;20128;-59
2022/01/04 09:45:58;;;;;;;3.47;1.30;;;;;;;;;;5032390;28;20056;-58
2022/01/04 09:48:25;;;;;;;3.25;1.05;;;;;;;;;;5031574;28;20474;-57
2022/01/04 09:50:53;;;;;;;3.45;1.50;;;;;;;;;;5031660;28;20058;-59
2022/01/04 09:53:21;;;;;;;3.83;0.90;;;;;;;;;;5031793;28;20513;-57
2022/01/04 09:55:52;;;;;;;2.33;1.10;;;;;;;;;;5031600;28;20061;-57
2022/01/04 09:58:21;;;;;;;3.22;1.05;;;;;;;;;;5031606;28;20045;-53
2022/01/04 10:00:50;;;;;;;2.67;0.80;;;;;;;;;;5031474;28;20057;-54
2022/01/04 10:03:18;;;;;;;1.85;0.90;;;;;;;;;;5031583;28;20475;-54
2022/01/04 10:05:46;;;;;;;2.00;0.80;;;;;;;;;;5030643;28;20053;-56
2022/01/04 10:08:14;;;;;;;1.83;0.80;;;;;;;;;;5032137;28;20353;-56
2022/01/04 10:10:43;;;;;;;3.90;0.90;;;;;;;;;;5031272;28;20057;-55
2022/01/04 10:13:11;;;;;;;1.80;0.95;;;;;;;;;;5031551;28;20060;-55
2022/01/04 10:15:41;;;;;;;2.88;0.85;;;;;;;;;;5032136;28;20491;-55
2022/01/04 10:18:23;;;;;;;1.83;0.85;;;;;;;;;;5031608;28;20045;-54
2022/01/04 10:20:52;;;;;;;2.63;1.00;;;;;;;;;;5032038;28;20426;-57
2022/01/04 10:23:21;;;;;;;2.47;1.00;;;;;;;;;;5031702;28;20046;-58
2022/01/04 10:25:49;;;;;;;1.88;0.80;;;;;;;;;;5031473;28;20049;-54
2022/01/04 10:28:29;;;;;;;1.63;0.90;;;;;;;;;;5031448;28;20103;-54
2022/01/04 10:30:59;;;;;;;2.63;1.00;;;;;;;;;;5031898;28;20049;-58
2022/01/04 10:33:28;;;;;;;1.50;0.90;;;;;;;;;;5032236;28;20049;-57
2022/01/04 10:35:56;;;;;;;2.22;0.90;;;;;;;;;;5031634;28;20084;-54
2022/01/04 10:38:26;;;;;;;3.20;1.13;;;;;;;;;;5031187;28;20276;-58
2022/01/04 10:40:59;;;;;;;2.35;0.98;;;;;;;;;;5030593;28;20057;-56
2022/01/04 10:43:28;;;;;;;2.42;0.98;;;;;;;;;;5031497;28;20049;-54
2022/01/04 10:45:56;;;;;;;3.13;1.08;;;;;;;;;;5031544;28;20049;-54
2022/01/04 10:48:24;;;;;;;2.38;1.10;;;;;;;;;;5031146;28;20144;-53
2022/01/04 10:50:55;;;;;;;3.42;1.42;;;;;;;;;;5031550;28;20049;-55
2022/01/04 10:53:29;;;;;;;2.72;1.00;;;;;;;;;;5031370;28;20080;-55
2022/01/04 10:56:00;;;;;;;1.83;0.90;;;;;;;;;;5031294;28;20058;-54
2022/01/04 10:58:31;;;;;;;1.95;0.80;;;;;;;;;;5031323;28;20049;-56
2022/01/04 11:00:59;;;;;;;2.08;1.30;;;;;;;;;;5031457;28;20050;-54
2022/01/04 11:03:29;;;;;;;1.88;0.90;;;;;;;;;;5030706;28;20053;-56
2022/01/04 11:06:01;;;;;;;2.30;1.00;;;;;;;;;;5031444;28;20140;-57
2022/01/04 11:08:29;;;;;;;2.75;1.65;;;;;;;;;;5031399;28;20060;-57
2022/01/04 11:10:56;;;;;;;2.85;1.30;;;;;;;;;;5031235;28;20064;-55
2022/01/04 11:13:23;;;;;;;2.25;0.90;;;;;;;;;;5031576;28;20462;-53
2022/01/04 11:15:51;;;;;;;3.25;1.17;;;;;;;;;;5031303;28;20136;-54
2022/01/04 11:18:18;;;;;;;2.22;0.93;;;;;;;;;;5030930;28;20045;-57
2022/01/04 11:20:46;;;;;;;2.58;1.17;;;;;;;;;;5031320;28;20499;-64
2022/01/04 11:23:16;;;;;;;2.17;1.00;;;;;;;;;;5030985;28;20457;-58
2022/01/04 11:25:45;;;;;;;2.15;1.10;;;;;;;;;;5030691;28;20050;-64
2022/01/04 11:28:14;;;;;;;3.10;0.93;;;;;;;;;;5030451;28;20483;-64
2022/01/04 11:30:54;;;;;;;1.70;0.90;;;;;;;;;;5030176;28;20073;-62
2022/01/04 11:33:26;;;;;;;1.67;0.90;;;;;;;;;;5030343;28;20517;-59
2022/01/04 11:35:54;;;;;;;2.10;0.95;;;;;;;;;;5030549;28;20327;-60
2022/01/04 11:38:37;;;;;;;2.63;0.98;;;;;;;;;;5030764;28;20045;-60
2022/01/04 11:41:05;;;;;;;3.80;0.80;;;;;;;;;;5030616;28;20616;-62
2022/01/04 11:43:35;;;;;;;2.47;0.98;;;;;;;;;;5030418;28;20049;-57
2022/01/04 11:46:02;;;;;;;2.00;0.90;;;;;;;;;;5030822;28;20415;-56
2022/01/04 11:48:32;;;;;;;2.72;0.80;;;;;;;;;;5030764;28;20061;-55
2022/01/04 11:51:01;;;;;;;1.67;0.80;;;;;;;;;;5033374;28;20076;-54
2022/01/04 11:53:28;;;;;;;2.63;0.88;;;;;;;;;;5034421;28;20049;-60
2022/01/04 11:56:00;;;;;;;1.92;0.90;;;;;;;;;;5034616;28;20414;-55
2022/01/04 11:58:41;;;;;;;3.15;1.67;;;;;;;;;;5034853;28;20111;-53
2022/01/04 12:01:09;;;;;;;2.08;0.90;;;;;;;;;;5034633;28;20054;-56
2022/01/04 12:03:41;;;;;;;1.48;0.80;;;;;;;;;;5019129;28;20046;-55
2022/01/04 12:06:09;;;;;;;2.42;1.00;;;;;;;;;;5015053;28;20057;-56
2022/01/04 12:08:38;;;;;;;2.00;1.00;;;;;;;;;;5014787;28;20435;-54
2022/01/04 12:11:20;;;;;;;1.70;1.02;;;;;;;;;;5015419;28;20073;-56
2022/01/04 12:13:49;;;;;;;2.55;0.90;;;;;;;;;;5014798;28;20054;-58
2022/01/04 12:16:16;;;;;;;2.30;0.98;;;;;;;;;;5015017;28;20109;-55
2022/01/04 12:18:55;;;;;;;3.45;1.20;;;;;;;;;;5014433;28;20364;-57
2022/01/04 12:21:22;;;;;;;3.40;1.27;;;;;;;;;;5014674;28;20057;-55
2022/01/04 12:23:50;;;;;;;2.63;1.13;;;;;;;;;;5014137;28;20494;-58
2022/01/04 12:26:27;;;;;;;2.67;1.20;;;;;;;;;;5014082;28;20231;-54
2022/01/04 12:29:22;;;;;;;2.35;1.20;;;;;;;;;;5014040;28;20050;-56
2022/01/04 12:31:52;;;;;;;2.08;1.10;;;;;;;;;;5014280;28;20046;-56
2022/01/04 12:34:41;;;;;;;2.08;1.08;;;;;;;;;;5014352;28;20057;-54
2022/01/04 12:37:18;;;;;;;2.47;1.00;;;;;;;;;;5001773;28;20650;-54
2022/01/04 12:39:45;;;;;;;1.98;1.00;;;;;;;;;;5014261;28;20058;-53
2022/01/04 12:42:15;;;;;;;2.00;1.00;;;;;;;;;;5014612;28;20052;-56
2022/01/04 12:44:43;;;;;;;2.20;1.02;;;;;;;;;;5014108;28;20049;-57
2022/01/04 12:47:11;;;;;;;2.85;1.20;;;;;;;;;;5014043;28;20104;-57
2022/01/04 12:49:39;;;;;;;2.58;1.20;;;;;;;;;;5014074;28;20042;-54
2022/01/04 12:52:07;;;;;;;2.60;1.13;;;;;;;;;;5013603;28;20085;-55
2022/01/04 12:54:36;;;;;;;2.63;1.05;;;;;;;;;;5013472;28;20060;-58
2022/01/04 12:57:07;;;;;;;2.95;1.13;;;;;;;;;;5013451;28;20057;-58
2022/01/04 12:59:40;;;;;;;2.75;1.25;;;;;;;;;;5013558;28;20133;-55
2022/01/04 13:02:19;;;;;;;2.63;0.80;;;;;;;;;;5013516;28;20053;-56
2022/01/04 13:04:49;;;;;;;8.02;3.13;;;;;;;;;;5013172;28;20054;-56
2022/01/04 13:07:26;;;;;;;2.78;1.08;;;;;;;;;;5013619;28;20072;-54
2022/01/04 13:10:01;;;;;;;9.60;4.20;;;;;;;;;;5013406;28;20135;-56
2022/01/04 13:12:31;;;;;;;3.33;1.30;;;;;;;;;;5013412;28;20068;-54
2022/01/04 13:14:59;;;;;;;2.83;1.20;;;;;;;;;;5013748;28;20418;-53
2022/01/04 13:17:28;;;;;;;3.22;1.52;;;;;;;;;;5013618;28;20053;-59
2022/01/04 13:19:56;;;;;;;4.70;1.80;;;;;;;;;;5012722;28;20053;-59
2022/01/04 13:22:26;;;;;;;2.47;1.10;;;;;;;;;;5011749;28;20515;-58
2022/01/04 13:24:55;;;;;;;2.92;1.10;;;;;;;;;;5012433;28;20049;-58
2022/01/04 13:27:29;;;;;;;2.60;1.40;;;;;;;;;;5012457;28;20176;-58
2022/01/04 13:29:57;;;;;;;3.83;1.38;;;;;;;;;;5012581;28;20050;-57
2022/01/04 13:32:27;;;;;;;2.72;1.33;;;;;;;;;;5012334;28;20049;-59
2022/01/04 13:34:58;;;;;;;;;;;;;;;;;;5013145;28;20054;-59
2022/01/04 13:37:25;;;;;;;3.85;1.40;;;;;;;;;;5012142;28;19929;-60
2022/01/04 13:39:52;;;;;;;3.25;1.42;;;;;;;;;;5012281;28;20060;-58
2022/01/04 13:42:35;;;;;;;3.70;1.48;;;;;;;;;;5012024;28;20045;-61
2022/01/04 13:45:08;;;;;;;3.30;1.40;;;;;;;;;;5012157;28;20567;-59
2022/01/04 13:47:38;;;;;;;3.30;1.45;;;;;;;;;;5012177;28;20419;-58
2022/01/04 13:50:15;;;;;;;3.45;1.75;;;;;;;;;;5012484;28;20053;-59
2022/01/04 13:52:42;;;;;;;3.38;1.50;;;;;;;;;;5012358;28;20061;-59
2022/01/04 13:55:09;;;;;;;4.25;1.60;;;;;;;;;;5012193;28;20496;-58
2022/01/04 13:57:36;;;;;;;4.18;1.50;;;;;;;;;;5011689;28;20053;-57
2022/01/04 14:00:29;;;;;;;4.20;1.60;;;;;;;;;;5011879;28;20050;-58
2022/01/04 14:02:57;;;;;;;2.85;1.33;;;;;;;;;;5011754;28;20522;-59
2022/01/04 14:05:24;;;;;;;5.18;2.03;;;;;;;;;;5012098;28;20053;-57
2022/01/04 14:07:58;;;;;;;3.17;1.60;;;;;;;;;;5011742;28;20144;-59
2022/01/04 14:10:48;;;;;;;3.60;1.70;;;;;;;;;;5012149;28;20411;-58
2022/01/04 14:13:31;;;;;;;3.37;1.70;;;;;;;;;;5011307;28;20587;-57
2022/01/04 14:16:09;;;;;;;3.25;1.45;;;;;;;;;;5011980;28;20133;-56
2022/01/04 14:18:38;;;;;;;3.50;1.80;;;;;;;;;;5011951;28;20044;-59
2022/01/04 14:21:05;;;;;;;3.92;1.77;;;;;;;;;;5011704;28;20457;-59
2022/01/04 14:23:36;;;;;;;3.80;1.95;;;;;;;;;;5011743;28;20042;-57
2022/01/04 14:26:08;;;;;;;3.78;1.90;;;;;;;;;;5011425;28;20077;-58
2022/01/04 14:28:35;;;;;;;4.80;1.90;;;;;;;;;;5011458;28;20057;-59
2022/01/04 14:31:02;;;;;;;4.20;2.13;;;;;;;;;;5011549;28;20487;-58
2022/01/04 14:33:29;;;;;;;5.30;1.80;;;;;;;;;;5011200;28;20076;-58
2022/01/04 14:35:57;;;;;;;3.75;1.90;;;;;;;;;;5011363;28;20050;-58
2022/01/04 14:38:24;;;;;;;4.30;2.00;;;;;;;;;;5011161;28;20557;-57
2022/01/04 14:40:51;;;;;;;4.00;1.77;;;;;;;;;;5011665;28;20046;-56
2022/01/04 14:43:18;;;;;;;4.10;1.70;;;;;;;;;;5011186;28;20053;-58
2022/01/04 14:45:45;;;;;;;3.35;1.90;;;;;;;;;;5011171;28;20066;-58
2022/01/04 14:48:14;;;;;;;3.10;1.42;;;;;;;;;;5010917;28;20050;-56
2022/01/04 14:50:41;;;;;;;3.67;2.25;;;;;;;;;;5011735;28;20127;-62
2022/01/04 14:53:09;;;;;;;4.57;2.10;;;;;;;;;;5011180;28;20050;-61
2022/01/04 14:55:36;;;;;;;4.28;1.98;;;;;;;;;;5011051;28;20045;-62
2022/01/04 14:58:03;;;;;;;3.25;1.60;;;;;;;;;;5010878;28;20060;-63
2022/01/04 15:00:31;;;;;;;4.43;2.00;;;;;;;;;;5011074;28;20412;-60